Time;durP1;ratioP1;P1;durP2;ratioP2;P2;SDS_P1;SDS_P2;PMS_P1;PMS_P2;Temp;Humidity;BMP_temperature;BMP_pressure;BME280_temperature;BME280_humidity;BME280_pressure;Samples;Min_cycle;Max_cycle;Signal;HPM_P1;HPM_P2
2022/04/07 00:01:04;;;;;;;5.72;2.72;;;;;;;9.13;96.94;97031.59;5063308;28;20076;-67
2022/04/07 00:03:29;;;;;;;10.18;2.85;;;;;;;9.22;97.16;97020.75;5055558;28;20024;-68
2022/04/07 00:05:55;;;;;;;7.93;3.03;;;;;;;9.21;96.92;97014.63;5046288;28;20022;-68
2022/04/07 00:08:20;;;;;;;10.35;2.17;;;;;;;9.23;97.09;97017.19;5050483;28;20017;-68
2022/04/07 00:10:48;;;;;;;5.90;2.40;;;;;;;9.28;96.27;96999.50;5044388;28;20348;-68
2022/04/07 00:13:14;;;;;;;3.83;2.20;;;;;;;9.28;95.80;97010.88;5054499;28;20143;-68
2022/04/07 00:15:39;;;;;;;4.88;2.33;;;;;;;9.32;96.05;97011.59;5064050;28;20379;-68
2022/04/07 00:18:06;;;;;;;4.80;2.53;;;;;;;9.31;96.26;97002.88;5063984;28;20029;-68
2022/04/07 00:20:32;;;;;;;3.30;1.90;;;;;;;9.34;96.05;97010.63;5064219;28;20209;-68
2022/04/07 00:22:58;;;;;;;5.22;2.30;;;;;;;9.33;96.31;96998.41;5063090;28;20021;-68
2022/04/07 00:25:25;;;;;;;3.83;2.22;;;;;;;9.33;95.42;97000.19;5063361;28;20021;-68
2022/04/07 00:27:51;;;;;;;4.07;2.17;;;;;;;9.37;95.50;96994.75;5063328;28;20035;-68
2022/04/07 00:30:20;;;;;;;5.10;2.15;;;;;;;9.34;95.56;96988.75;5061724;28;20025;-68
2022/04/07 00:32:46;;;;;;;3.95;2.22;;;;;;;9.38;95.38;96985.94;5049883;28;20104;-68
2022/04/07 00:35:12;;;;;;;3.45;2.25;;;;;;;9.34;95.43;96988.75;5043843;28;20055;-68
2022/04/07 00:37:38;;;;;;;3.72;2.08;;;;;;;9.36;95.30;96981.69;5043920;28;20030;-68
2022/04/07 00:40:06;;;;;;;4.53;2.33;;;;;;;9.35;95.62;96964.22;5049754;28;20084;-68
2022/04/07 00:42:31;;;;;;;3.25;2.00;;;;;;;9.28;97.50;96973.25;5063228;28;20257;-68
2022/04/07 00:44:57;;;;;;;3.33;1.88;;;;;;;9.19;98.03;96968.38;5063172;28;20029;-68
2022/04/07 00:47:24;;;;;;;4.15;2.28;;;;;;;9.15;99.13;96966.78;5063149;28;20024;-68
2022/04/07 00:49:49;;;;;;;8.65;2.10;;;;;;;9.18;98.94;96966.69;5058949;28;20317;-68
2022/04/07 00:52:17;;;;;;;5.28;2.50;;;;;;;9.14;98.47;96968.56;5058728;28;20092;-68
2022/04/07 00:54:42;;;;;;;4.22;2.17;;;;;;;9.12;98.70;96962.53;5062825;28;20029;-68
2022/04/07 00:57:09;;;;;;;5.10;2.58;;;;;;;9.22;98.40;96963.88;5063068;28;20016;-68
2022/04/07 00:59:35;;;;;;;5.75;2.08;;;;;;;9.20;98.51;96959.59;5047739;28;20033;-68
2022/04/07 01:02:01;;;;;;;4.78;2.20;;;;;;;9.16;98.27;96939.63;5061912;28;20018;-68
2022/04/07 01:04:26;;;;;;;6.10;2.10;;;;;;;9.17;98.73;96951.84;5063005;28;20028;-68
2022/04/07 01:06:52;;;;;;;3.28;2.15;;;;;;;9.16;98.75;96937.00;5060860;28;20029;-68
2022/04/07 01:09:19;;;;;;;3.47;2.25;;;;;;;9.15;99.30;96924.81;5053011;28;20013;-68
2022/04/07 01:11:45;;;;;;;3.50;2.15;;;;;;;9.11;99.61;96933.72;5058309;28;20024;-68
2022/04/07 01:14:11;;;;;;;4.30;2.05;;;;;;;9.11;99.66;96929.31;5062610;28;20036;-68
2022/04/07 01:16:36;;;;;;;4.38;2.20;;;;;;;9.12;99.88;96924.94;5062832;28;20024;-68
2022/04/07 01:19:02;;;;;;;10.27;2.42;;;;;;;9.04;100.00;96916.50;5051648;28;20027;-68
2022/04/07 01:21:30;;;;;;;4.28;1.83;;;;;;;9.08;99.58;96912.84;5062835;28;20078;-68
2022/04/07 01:24:07;;;;;;;4.97;2.25;;;;;;;9.04;100.00;96927.00;5062931;28;20021;-68
2022/04/07 01:26:44;;;;;;;3.88;1.75;;;;;;;9.03;100.00;96920.03;5063616;28;20021;-68
2022/04/07 01:29:13;;;;;;;3.40;2.10;;;;;;;9.04;100.00;96924.38;5063645;28;20025;-68
2022/04/07 01:31:39;;;;;;;5.00;2.30;;;;;;;9.00;100.00;96917.53;5063545;28;20020;-68
2022/04/07 01:34:08;;;;;;;4.18;1.83;;;;;;;8.96;100.00;96922.09;5063100;28;20048;-68
2022/04/07 01:36:38;;;;;;;8.30;2.53;;;;;;;8.91;100.00;96904.78;5061414;28;20316;-68
2022/04/07 01:39:07;;;;;;;5.88;1.98;;;;;;;8.93;100.00;96916.09;5062390;28;20066;-68
2022/04/07 01:41:34;;;;;;;3.55;2.40;;;;;;;8.94;100.00;96915.16;5061738;28;20095;-68
2022/04/07 01:44:02;;;;;;;3.45;2.22;;;;;;;9.00;100.00;96915.78;5066826;28;20025;-68
2022/04/07 01:46:29;;;;;;;4.00;2.53;;;;;;;9.02;100.00;96921.84;5066779;28;20020;-68
2022/04/07 01:48:56;;;;;;;4.43;2.40;;;;;;;9.04;100.00;96916.50;5066746;28;20025;-68
2022/04/07 01:51:24;;;;;;;7.38;2.70;;;;;;;9.03;100.00;96907.78;5066689;28;20023;-68
2022/04/07 01:53:50;;;;;;;4.53;2.42;;;;;;;9.02;100.00;96905.22;5066653;28;20020;-68
2022/04/07 01:56:18;;;;;;;3.88;2.17;;;;;;;9.08;100.00;96910.22;5066605;28;20025;-68
2022/04/07 01:58:44;;;;;;;3.40;1.90;;;;;;;9.06;100.00;96904.19;5066552;28;20343;-68
2022/04/07 02:01:10;;;;;;;4.32;2.50;;;;;;;9.02;100.00;96894.72;5066415;28;20044;-68
2022/04/07 02:03:35;;;;;;;5.85;2.40;;;;;;;9.10;100.00;96895.25;5066719;28;20060;-68
2022/04/07 02:06:12;;;;;;;5.65;2.20;;;;;;;9.05;100.00;96882.31;5066397;28;20320;-68
2022/04/07 02:08:37;;;;;;;4.75;2.30;;;;;;;9.06;100.00;96883.19;5066382;28;20021;-68
2022/04/07 02:11:03;;;;;;;4.22;2.38;;;;;;;9.02;100.00;96892.09;5066511;28;20028;-68
2022/04/07 02:13:32;;;;;;;5.32;2.17;;;;;;;8.98;100.00;96885.28;5050427;28;20336;-68
2022/04/07 02:15:58;;;;;;;3.50;2.20;;;;;;;9.01;100.00;96880.75;5046595;28;20032;-68
2022/04/07 02:18:23;;;;;;;4.10;2.30;;;;;;;8.98;100.00;96874.78;5046218;28;20048;-68
2022/04/07 02:20:48;;;;;;;3.35;2.05;;;;;;;8.96;100.00;96881.88;5046145;28;20025;-67
2022/04/07 02:23:14;;;;;;;3.50;2.05;;;;;;;8.95;100.00;96872.28;5054245;28;20017;-67
2022/04/07 02:25:39;;;;;;;5.22;2.00;;;;;;;9.03;100.00;96862.31;5046123;28;20021;-68
2022/04/07 02:28:05;;;;;;;5.82;2.70;;;;;;;8.97;100.00;96868.69;5064399;28;20212;-68
2022/04/07 02:30:30;;;;;;;3.15;2.10;;;;;;;8.99;100.00;96860.75;5066106;28;20086;-68
2022/04/07 02:32:55;;;;;;;4.60;2.05;;;;;;;8.96;100.00;96863.50;5065746;28;20044;-68
2022/04/07 02:35:22;;;;;;;4.55;1.88;;;;;;;8.96;100.00;96860.88;5066088;28;20055;-68
2022/04/07 02:37:47;;;;;;;7.18;1.80;;;;;;;9.00;100.00;96865.06;5064166;28;20087;-68
2022/04/07 02:40:13;;;;;;;6.97;1.80;;;;;;;9.00;100.00;96862.44;5064930;28;20332;-68
2022/04/07 02:42:39;;;;;;;4.53;1.88;;;;;;;9.07;100.00;96871.75;5065167;28;20044;-68
2022/04/07 02:45:05;;;;;;;3.25;1.70;;;;;;;9.02;100.00;96865.88;5065153;28;20067;-68
2022/04/07 02:47:32;;;;;;;4.50;2.10;;;;;;;9.06;100.00;96864.81;5060635;28;20092;-68
2022/04/07 02:49:58;;;;;;;6.47;2.05;;;;;;;9.07;100.00;96845.53;5061451;28;20403;-68
2022/04/07 02:52:24;;;;;;;3.85;1.80;;;;;;;9.10;100.00;96859.38;5064675;28;20020;-68
2022/04/07 02:54:49;;;;;;;1.38;1.05;;;;;;;9.08;100.00;96842.00;5064989;28;20274;-68
2022/04/07 02:57:14;;;;;;;3.10;1.60;;;;;;;9.14;100.00;96844.38;5063343;28;20025;-68
2022/04/07 02:59:40;;;;;;;3.25;1.48;;;;;;;9.12;100.00;96840.94;5061672;28;20085;-68
2022/04/07 03:02:05;;;;;;;4.28;1.77;;;;;;;9.11;99.91;96828.75;5045485;28;20387;-68
2022/04/07 03:04:31;;;;;;;2.78;1.35;;;;;;;9.18;99.38;96841.56;5045395;28;20080;-68
2022/04/07 03:06:56;;;;;;;3.58;1.75;;;;;;;9.21;99.37;96841.41;5049181;28;20040;-68
2022/04/07 03:09:22;;;;;;;2.00;1.15;;;;;;;9.17;99.28;96828.50;5064690;28;20040;-68
2022/04/07 03:11:47;;;;;;;6.50;1.55;;;;;;;9.14;99.15;96820.75;5064575;28;20029;-68
2022/04/07 03:14:14;;;;;;;2.92;1.17;;;;;;;9.13;99.94;96821.66;5064611;28;20388;-68
2022/04/07 03:16:40;;;;;;;3.67;1.55;;;;;;;9.16;99.53;96806.63;5063307;28;20317;-68
2022/04/07 03:19:05;;;;;;;2.65;1.40;;;;;;;9.13;99.69;96808.53;5045077;28;20021;-68
2022/04/07 03:21:31;;;;;;;1.65;1.05;;;;;;;9.13;99.75;96816.41;5045087;28;20025;-68
2022/04/07 03:23:56;;;;;;;2.20;1.23;;;;;;;9.09;100.00;96805.22;5044987;28;20029;-68
2022/04/07 03:26:22;;;;;;;4.50;1.40;;;;;;;9.03;100.00;96800.22;5044961;28;20059;-68
2022/04/07 03:28:47;;;;;;;5.05;1.48;;;;;;;8.96;100.00;96797.91;5044959;28;20337;-68
2022/04/07 03:31:13;;;;;;;2.17;1.25;;;;;;;8.93;100.00;96798.03;5044870;28;20027;-68
2022/04/07 03:33:38;;;;;;;2.15;1.30;;;;;;;8.96;100.00;96784.78;5044658;28;20337;-68
2022/04/07 03:36:04;;;;;;;5.05;1.48;;;;;;;8.95;100.00;96785.72;5044739;28;20324;-68
2022/04/07 03:38:29;;;;;;;6.93;1.50;;;;;;;8.83;100.00;96793.16;5044722;28;20027;-68
2022/04/07 03:40:55;;;;;;;5.70;1.33;;;;;;;8.94;100.00;96789.25;5045453;28;20101;-68
2022/04/07 03:43:21;;;;;;;3.67;1.58;;;;;;;8.81;100.00;96794.16;5044701;28;20269;-68
2022/04/07 03:45:46;;;;;;;1.15;0.85;;;;;;;8.89;100.00;96801.72;5044620;28;20047;-68
2022/04/07 03:48:12;;;;;;;1.63;1.33;;;;;;;8.89;100.00;96788.59;5044559;28;20244;-68
2022/04/07 03:50:37;;;;;;;2.08;1.10;;;;;;;8.85;100.00;96781.78;5047144;28;20013;-68
2022/04/07 03:53:03;;;;;;;6.00;1.40;;;;;;;8.83;100.00;96772.19;5063071;28;20059;-68
2022/04/07 03:55:28;;;;;;;1.92;1.17;;;;;;;8.86;100.00;96784.31;5062232;28;20312;-68
2022/04/07 03:57:53;;;;;;;4.30;1.60;;;;;;;8.82;100.00;96781.91;5043472;28;20363;-68
2022/04/07 04:00:19;;;;;;;1.60;1.17;;;;;;;8.88;100.00;96779.00;5043328;28;20021;-68
2022/04/07 04:02:45;;;;;;;1.92;1.00;;;;;;;8.92;100.00;96770.09;5043336;28;20209;-68
2022/04/07 04:05:11;;;;;;;1.20;0.80;;;;;;;8.93;100.00;96766.56;5042895;28;20076;-68
2022/04/07 04:07:37;;;;;;;1.58;1.17;;;;;;;8.94;100.00;96757.75;5043122;28;20025;-68
2022/04/07 04:10:03;;;;;;;2.28;0.93;;;;;;;8.95;100.00;96759.47;5043774;28;20078;-68
2022/04/07 04:12:29;;;;;;;1.40;0.85;;;;;;;9.00;100.00;96762.75;5059053;28;20017;-68
2022/04/07 04:14:54;;;;;;;4.40;1.25;;;;;;;8.94;100.00;96747.25;5059301;28;20339;-68
2022/04/07 04:17:20;;;;;;;1.02;0.82;;;;;;;8.98;100.00;96761.97;5043449;28;20025;-68
2022/04/07 04:19:45;;;;;;;2.97;0.90;;;;;;;8.91;100.00;96755.25;5042949;28;20017;-68
2022/04/07 04:22:11;;;;;;;1.73;0.98;;;;;;;8.87;100.00;96762.44;5059098;28;20328;-68
2022/04/07 04:24:36;;;;;;;3.00;1.10;;;;;;;8.86;100.00;96765.13;5062495;28;20096;-68
2022/04/07 04:27:02;;;;;;;2.60;1.33;;;;;;;8.87;100.00;96762.44;5062476;28;20048;-68
2022/04/07 04:29:27;;;;;;;7.13;1.08;;;;;;;8.82;100.00;96760.00;5062493;28;20016;-68
2022/04/07 04:31:53;;;;;;;2.35;1.20;;;;;;;8.86;100.00;96754.63;5049559;28;20024;-68
2022/04/07 04:34:18;;;;;;;1.48;0.90;;;;;;;8.99;100.00;96751.41;5043997;28;20033;-68
2022/04/07 04:36:44;;;;;;;3.28;0.90;;;;;;;9.00;100.00;96739.13;5061524;28;20021;-66
2022/04/07 04:39:09;;;;;;;1.17;0.80;;;;;;;9.09;99.68;96730.88;5063037;28;20021;-69
2022/04/07 04:41:34;;;;;;;0.88;0.70;;;;;;;9.11;100.00;96729.03;5063642;28;20067;-69
2022/04/07 04:44:00;;;;;;;1.85;0.80;;;;;;;9.06;100.00;96725.75;5063399;28;20051;-69
2022/04/07 04:46:27;;;;;;;1.08;0.60;;;;;;;9.06;100.00;96725.75;5063029;28;20024;-69
2022/04/07 04:48:52;;;;;;;0.75;0.50;;;;;;;9.07;99.49;96737.94;5063742;28;20084;-69
2022/04/07 04:51:17;;;;;;;3.00;0.75;;;;;;;9.11;98.75;96723.78;5063687;28;20021;-69
2022/04/07 04:53:43;;;;;;;2.00;1.30;;;;;;;9.10;98.99;96717.69;5063661;28;20025;-69
2022/04/07 04:56:08;;;;;;;0.75;0.70;;;;;;;9.13;98.48;96708.81;5063928;28;20033;-69
2022/04/07 04:58:34;;;;;;;7.43;1.08;;;;;;;9.14;98.62;96710.53;5063612;28;20348;-69
2022/04/07 05:00:59;;;;;;;3.47;0.80;;;;;;;9.08;98.28;96693.25;5063529;28;20025;-69
2022/04/07 05:03:24;;;;;;;1.23;0.60;;;;;;;9.17;98.22;96697.28;5063824;28;20056;-69
2022/04/07 05:05:50;;;;;;;1.08;0.70;;;;;;;9.12;98.54;96699.25;5063512;28;20190;-69
2022/04/07 05:08:15;;;;;;;1.02;0.70;;;;;;;9.05;99.66;96709.13;5063513;28;20029;-69
2022/04/07 05:10:41;;;;;;;1.65;1.02;;;;;;;9.05;100.00;96697.81;5063479;28;20021;-69
2022/04/07 05:13:06;;;;;;;3.92;1.10;;;;;;;9.01;100.00;96702.34;5063503;28;20028;-69
2022/04/07 05:15:32;;;;;;;1.23;0.80;;;;;;;9.00;100.00;96694.53;5063718;28;20257;-69
2022/04/07 05:17:57;;;;;;;2.90;0.77;;;;;;;8.95;100.00;96699.16;5066406;28;20088;-69
2022/04/07 05:20:23;;;;;;;3.28;0.82;;;;;;;8.89;100.00;96694.16;5067230;28;20320;-69
2022/04/07 05:22:48;;;;;;;1.42;0.68;;;;;;;8.94;100.00;96689.53;5067549;28;20271;-69
2022/04/07 05:25:14;;;;;;;1.13;0.77;;;;;;;8.95;100.00;96686.03;5067267;28;20028;-69
2022/04/07 05:27:40;;;;;;;4.13;0.77;;;;;;;8.93;100.00;96693.09;5067196;28;20028;-69
2022/04/07 05:30:08;;;;;;;1.98;1.10;;;;;;;8.90;100.00;96691.47;5067135;28;20057;-69
2022/04/07 05:32:36;;;;;;;1.13;0.73;;;;;;;8.81;100.00;96689.25;5066909;28;20044;-69
2022/04/07 05:35:02;;;;;;;2.00;1.05;;;;;;;8.87;100.00;96694.22;5067293;28;20355;-69
2022/04/07 05:37:27;;;;;;;1.85;0.95;;;;;;;8.74;100.00;96672.06;5066984;28;20028;-69
2022/04/07 05:39:53;;;;;;;4.60;0.85;;;;;;;8.78;100.00;96668.38;5066810;28;20315;-69
2022/04/07 05:42:18;;;;;;;1.38;0.80;;;;;;;8.79;100.00;96665.69;5067139;28;20024;-69
2022/04/07 05:44:44;;;;;;;4.15;1.27;;;;;;;8.78;100.00;96658.75;5066910;28;20374;-69
2022/04/07 05:47:09;;;;;;;1.13;0.80;;;;;;;8.76;100.00;96655.34;5066867;28;20021;-69
2022/04/07 05:49:35;;;;;;;1.33;0.95;;;;;;;8.78;100.00;96650.91;5067003;28;20044;-69
2022/04/07 05:52:03;;;;;;;5.75;1.13;;;;;;;8.74;100.00;96654.53;5066698;28;20351;-69
2022/04/07 05:54:29;;;;;;;0.70;0.70;;;;;;;8.79;100.00;96649.97;5066661;28;20047;-69
2022/04/07 05:56:54;;;;;;;3.25;1.17;;;;;;;8.75;100.00;96632.66;5066670;28;20033;-69
2022/04/07 05:59:19;;;;;;;1.50;0.90;;;;;;;8.79;100.00;96634.22;5066874;28;20127;-69
2022/04/07 06:01:45;;;;;;;3.47;0.82;;;;;;;8.81;100.00;96649.91;5066629;28;20025;-69
2022/04/07 06:04:10;;;;;;;1.50;1.10;;;;;;;8.83;100.00;96630.53;5066529;28;20025;-69
2022/04/07 06:06:36;;;;;;;1.73;0.90;;;;;;;8.86;100.00;96623.47;5066417;28;20025;-69
2022/04/07 06:09:02;;;;;;;5.72;1.38;;;;;;;8.87;100.00;96625.16;5066376;28;20035;-69
2022/04/07 06:11:28;;;;;;;1.77;1.13;;;;;;;8.87;100.00;96612.91;5066539;28;20200;-69
2022/04/07 06:13:53;;;;;;;1.58;0.93;;;;;;;8.85;100.00;96619.16;5066297;28;20028;-69
2022/04/07 06:16:19;;;;;;;2.80;0.90;;;;;;;8.86;100.00;96612.97;5066241;28;20028;-69
2022/04/07 06:18:45;;;;;;;5.78;0.95;;;;;;;8.93;100.00;96603.91;5066253;28;20220;-69
2022/04/07 06:21:10;;;;;;;1.50;0.82;;;;;;;8.98;100.00;96607.19;5066184;28;20343;-69
2022/04/07 06:23:36;;;;;;;4.90;0.95;;;;;;;9.00;100.00;96595.69;5066087;28;20031;-69
2022/04/07 06:26:01;;;;;;;1.08;0.80;;;;;;;8.97;100.00;96573.97;5066071;28;20091;-69
2022/04/07 06:28:26;;;;;;;2.63;0.98;;;;;;;9.00;100.00;96576.47;5065619;28;20419;-69
2022/04/07 06:30:54;;;;;;;1.08;0.70;;;;;;;9.02;100.00;96579.88;5066004;28;20365;-69
2022/04/07 06:33:21;;;;;;;0.80;0.65;;;;;;;9.01;100.00;96544.91;5065806;28;20045;-69
2022/04/07 06:35:48;;;;;;;8.23;1.13;;;;;;;9.07;100.00;96543.78;5065858;28;20028;-69
2022/04/07 06:38:13;;;;;;;4.93;1.13;;;;;;;9.12;100.00;96545.28;5065903;28;20029;-69
2022/04/07 06:40:39;;;;;;;1.58;0.80;;;;;;;9.14;100.00;96545.22;5065746;28;20084;-69
2022/04/07 06:43:04;;;;;;;0.77;0.77;;;;;;;9.17;100.00;96537.19;5065785;28;20024;-69
2022/04/07 06:45:30;;;;;;;1.85;0.93;;;;;;;9.16;100.00;96549.47;5065740;28;20025;-69
2022/04/07 06:47:56;;;;;;;3.90;1.45;;;;;;;9.21;100.00;96530.88;5065679;28;20048;-69
2022/04/07 06:50:23;;;;;;;2.22;0.80;;;;;;;9.20;100.00;96510.81;5065613;28;20021;-69
2022/04/07 06:52:49;;;;;;;0.80;0.57;;;;;;;9.26;100.00;96519.22;5065557;28;20020;-69
2022/04/07 06:55:15;;;;;;;2.42;0.88;;;;;;;9.31;100.00;96526.88;5065521;28;20047;-69
2022/04/07 06:57:58;;;;;;;3.85;0.77;;;;;;;9.38;100.00;96528.28;5065489;28;20079;-69
2022/04/07 07:00:29;;;;;;;1.42;0.75;;;;;;;9.36;100.00;96519.66;5065352;28;20024;-69
2022/04/07 07:02:56;;;;;;;1.20;0.63;;;;;;;9.39;100.00;96529.97;5065419;28;20021;-69
2022/04/07 07:05:23;;;;;;;1.13;0.65;;;;;;;9.37;100.00;96523.97;5065376;28;20032;-69
2022/04/07 07:07:49;;;;;;;1.98;0.80;;;;;;;9.36;100.00;96509.97;5065341;28;20025;-69
2022/04/07 07:10:22;;;;;;;2.85;0.95;;;;;;;9.32;100.00;96497.09;5065179;28;20021;-69
2022/04/07 07:12:48;;;;;;;0.60;0.50;;;;;;;9.27;100.00;96483.34;5065218;28;20035;-69
2022/04/07 07:15:14;;;;;;;1.38;0.60;;;;;;;9.31;100.00;96488.38;5065186;28;20224;-69
2022/04/07 07:17:40;;;;;;;1.08;0.73;;;;;;;9.35;100.00;96491.69;5065380;28;20076;-69
2022/04/07 07:20:10;;;;;;;2.80;0.77;;;;;;;9.33;100.00;96478.63;5064965;28;20347;-69
2022/04/07 07:22:36;;;;;;;4.00;0.98;;;;;;;9.38;100.00;96483.66;5065303;28;20071;-69
2022/04/07 07:25:02;;;;;;;0.95;0.63;;;;;;;9.35;100.00;96496.94;5064943;28;20023;-69
2022/04/07 07:27:34;;;;;;;0.88;0.40;;;;;;;9.39;100.00;96477.47;5065179;28;20021;-69
2022/04/07 07:29:59;;;;;;;2.47;0.52;;;;;;;9.43;100.00;96453.63;5064933;28;20040;-69
2022/04/07 07:32:25;;;;;;;1.30;0.70;;;;;;;9.50;100.00;96469.94;5064656;28;20271;-69
2022/04/07 07:34:50;;;;;;;5.60;0.85;;;;;;;9.52;100.00;96474.19;5064807;28;20048;-69
2022/04/07 07:37:19;;;;;;;1.33;0.63;;;;;;;9.66;100.00;96471.75;5064736;28;20384;-69
2022/04/07 07:39:44;;;;;;;1.05;0.60;;;;;;;9.64;100.00;96456.97;5064142;28;20056;-69
2022/04/07 07:42:10;;;;;;;1.67;0.50;;;;;;;9.67;100.00;96468.19;5064594;28;20316;-69
2022/04/07 07:44:35;;;;;;;1.65;0.75;;;;;;;9.71;100.00;96453.13;5064575;28;20029;-69
2022/04/07 07:47:01;;;;;;;6.85;0.75;;;;;;;9.68;100.00;96442.78;5064578;28;20067;-69
2022/04/07 07:49:26;;;;;;;1.10;0.50;;;;;;;9.70;100.00;96446.16;5064488;28;20069;-69
2022/04/07 07:51:51;;;;;;;0.60;0.45;;;;;;;9.64;100.00;96441.22;5064496;28;20025;-69
2022/04/07 07:54:17;;;;;;;0.52;0.52;;;;;;;9.60;100.00;96455.44;5064450;28;20028;-69
2022/04/07 07:56:42;;;;;;;6.00;0.70;;;;;;;9.54;100.00;96445.22;5064497;28;20063;-69
2022/04/07 07:59:08;;;;;;;4.40;1.83;;;;;;;9.48;100.00;96445.53;5064255;28;20029;-69
2022/04/07 08:01:33;;;;;;;0.85;0.57;;;;;;;9.49;100.00;96415.75;5064284;28;20024;-69
2022/04/07 08:03:58;;;;;;;0.60;0.35;;;;;;;9.58;100.00;96415.25;5064276;28;20040;-69
2022/04/07 08:06:24;;;;;;;0.55;0.47;;;;;;;9.59;100.00;96432.72;5064240;28;20025;-69
2022/04/07 08:08:49;;;;;;;2.38;0.55;;;;;;;9.59;100.00;96427.47;5064233;28;20321;-69
2022/04/07 08:11:15;;;;;;;2.17;0.43;;;;;;;9.65;100.00;96416.66;5064154;28;20025;-69
2022/04/07 08:13:40;;;;;;;1.65;0.50;;;;;;;9.76;100.00;96417.81;5064127;28;20339;-69
2022/04/07 08:16:05;;;;;;;0.63;0.50;;;;;;;9.82;100.00;96408.75;5064092;28;20024;-69
2022/04/07 08:18:31;;;;;;;2.35;0.50;;;;;;;9.89;100.00;96394.38;5064068;28;20338;-69
2022/04/07 08:20:56;;;;;;;0.90;0.60;;;;;;;9.90;100.00;96406.59;5063961;28;20358;-69
2022/04/07 08:23:22;;;;;;;6.10;0.63;;;;;;;10.00;100.00;96410.44;5064007;28;20092;-69
2022/04/07 08:25:47;;;;;;;1.85;0.75;;;;;;;10.06;100.00;96407.50;5064213;28;20100;-69
2022/04/07 08:28:13;;;;;;;1.95;0.57;;;;;;;10.15;100.00;96386.00;5063932;28;20198;-69
2022/04/07 08:30:38;;;;;;;1.15;0.40;;;;;;;10.18;100.00;96412.97;5063904;28;20025;-69
2022/04/07 08:33:04;;;;;;;0.30;0.30;;;;;;;10.20;100.00;96347.19;5063682;28;20240;-69
2022/04/07 08:35:30;;;;;;;2.42;0.43;;;;;;;10.22;100.00;96387.41;5064054;28;20047;-69
2022/04/07 08:37:56;;;;;;;2.38;0.63;;;;;;;10.26;100.00;96388.91;5063806;28;20218;-69
2022/04/07 08:40:22;;;;;;;1.95;0.68;;;;;;;10.44;100.00;96387.94;5063988;28;20316;-69
2022/04/07 08:42:48;;;;;;;0.55;0.55;;;;;;;10.36;100.00;96379.59;5063805;28;20032;-69
2022/04/07 08:45:14;;;;;;;0.93;0.40;;;;;;;10.33;100.00;96390.28;5063744;28;20025;-69
2022/04/07 08:47:40;;;;;;;1.50;0.52;;;;;;;10.33;100.00;96379.75;5063754;28;20043;-69
2022/04/07 08:50:06;;;;;;;0.63;0.40;;;;;;;10.25;100.00;96374.91;5063955;28;20063;-69
2022/04/07 08:52:33;;;;;;;1.10;0.50;;;;;;;10.16;100.00;96374.56;5067448;28;20047;-69
2022/04/07 08:54:59;;;;;;;1.85;0.50;;;;;;;10.01;100.00;96351.69;5067814;28;20088;-69
2022/04/07 08:57:26;;;;;;;0.35;0.30;;;;;;;10.10;100.00;96364.38;5067794;28;20035;-69
2022/04/07 08:59:51;;;;;;;0.35;0.28;;;;;;;10.09;100.00;96384.56;5067681;28;20088;-69
2022/04/07 09:02:17;;;;;;;3.30;0.50;;;;;;;10.12;100.00;96370.38;5067626;28;20029;-69
2022/04/07 09:04:42;;;;;;;1.00;0.50;;;;;;;10.11;100.00;96360.81;5067708;28;20220;-69
2022/04/07 09:07:12;;;;;;;1.70;0.57;;;;;;;10.16;100.00;96366.69;5067562;28;20071;-69
2022/04/07 09:09:37;;;;;;;0.75;0.50;;;;;;;10.28;100.00;96350.22;5067781;28;20021;-69
2022/04/07 09:12:04;;;;;;;0.50;0.50;;;;;;;10.34;100.00;96355.16;5067470;28;20017;-69
2022/04/07 09:14:34;;;;;;;0.73;0.30;;;;;;;10.30;100.00;96358.91;5067468;28;20332;-69
2022/04/07 09:17:00;;;;;;;1.55;0.52;;;;;;;10.33;100.00;96354.34;5067363;28;20024;-69
2022/04/07 09:19:28;;;;;;;0.70;0.45;;;;;;;10.33;100.00;96364.00;5067273;28;20029;-69
2022/04/07 09:22:12;;;;;;;0.38;0.32;;;;;;;10.34;100.00;96345.50;5067533;28;20080;-69
2022/04/07 09:24:40;;;;;;;0.82;0.40;;;;;;;10.34;100.00;96339.38;5067537;28;20367;-69
2022/04/07 09:27:12;;;;;;;0.45;0.38;;;;;;;10.36;100.00;96338.41;5067221;28;20338;-69
2022/04/07 09:29:38;;;;;;;;;;;;;;;10.50;100.00;96334.97;5067627;28;20021;-69
2022/04/07 09:32:15;;;;;;;0.45;0.40;;;;;;;10.59;100.00;96310.81;5067193;28;19905;-69
2022/04/07 09:34:40;;;;;;;0.57;0.45;;;;;;;10.71;100.00;96320.66;5067127;28;20032;-69
2022/04/07 09:37:07;;;;;;;2.55;0.43;;;;;;;10.69;100.00;96319.88;5067280;28;20355;-69
2022/04/07 09:39:36;;;;;;;0.50;0.30;;;;;;;10.65;100.00;96334.13;5066936;28;20021;-69
2022/04/07 09:42:20;;;;;;;0.15;0.15;;;;;;;10.63;100.00;96314.94;5067191;28;20320;-69
2022/04/07 09:44:56;;;;;;;0.15;0.15;;;;;;;10.67;100.00;96348.06;5066880;28;20048;-69
2022/04/07 09:47:22;;;;;;;0.47;0.30;;;;;;;10.53;100.00;96334.81;5066876;28;20020;-69
2022/04/07 09:49:49;;;;;;;0.35;0.25;;;;;;;10.44;100.00;96328.28;5067065;28;20017;-69
2022/04/07 09:52:19;;;;;;;2.58;0.60;;;;;;;10.41;100.00;96319.75;5066734;28;20054;-69
2022/04/07 09:54:49;;;;;;;2.17;0.38;;;;;;;10.37;100.00;96328.72;5066990;28;20028;-69
2022/04/07 09:57:16;;;;;;;1.30;0.77;;;;;;;10.46;100.00;96322.94;5066970;28;20078;-69
2022/04/07 09:59:42;;;;;;;1.40;0.43;;;;;;;10.53;100.00;96329.56;5066528;28;20021;-69
2022/04/07 10:02:08;;;;;;;0.20;0.20;;;;;;;10.56;100.00;96316.22;5066008;28;20052;-69
2022/04/07 10:04:34;;;;;;;0.75;0.30;;;;;;;10.48;100.00;96289.53;5066268;28;20029;-69
2022/04/07 10:07:04;;;;;;;0.63;0.47;;;;;;;10.64;100.00;96295.63;5066451;28;20267;-69
2022/04/07 10:09:30;;;;;;;0.93;0.50;;;;;;;10.60;100.00;96284.41;5066486;28;20025;-69
2022/04/07 10:11:56;;;;;;;2.33;0.50;;;;;;;10.69;100.00;96283.91;5066264;28;20031;-69
2022/04/07 10:14:23;;;;;;;1.75;0.40;;;;;;;10.75;100.00;96287.97;5066588;28;20062;-69
2022/04/07 10:16:48;;;;;;;0.30;0.30;;;;;;;10.82;100.00;96284.03;5066262;28;20025;-69
2022/04/07 10:19:26;;;;;;;0.40;0.40;;;;;;;10.82;100.00;96284.03;5066158;28;20029;-69
2022/04/07 10:22:01;;;;;;;0.47;0.32;;;;;;;10.76;100.00;96279.16;5066215;28;20020;-69
2022/04/07 10:24:32;;;;;;;0.22;0.22;;;;;;;10.96;100.00;96260.41;5066405;28;20095;-69
2022/04/07 10:27:01;;;;;;;0.23;0.23;;;;;;;11.06;100.00;96258.09;5066107;28;20035;-69
2022/04/07 10:29:28;;;;;;;0.40;0.40;;;;;;;11.02;100.00;96252.16;5065971;28;20067;-69
2022/04/07 10:32:14;;;;;;;0.40;0.40;;;;;;;11.19;100.00;96267.81;5062831;28;20029;-69
2022/04/07 10:34:52;;;;;;;0.47;0.30;;;;;;;11.14;100.00;96254.09;5056153;28;20041;-69
2022/04/07 10:37:30;;;;;;;0.60;0.38;;;;;;;11.17;100.00;96253.88;5069027;28;20351;-69
2022/04/07 10:39:55;;;;;;;0.30;0.30;;;;;;;11.16;100.00;96252.19;5071584;28;20024;-69
2022/04/07 10:42:59;;;;;;;0.73;0.28;;;;;;;11.35;100.00;96242.25;5062817;28;20366;-69
2022/04/07 10:45:31;;;;;;;0.47;0.40;;;;;;;11.44;100.00;96241.72;5059470;28;20025;-69
2022/04/07 10:48:15;;;;;;;;;;;;;;;11.74;100.00;96250.38;5047372;28;20029;-69
2022/04/07 10:50:58;;;;;;;1.27;0.40;;;;;;;12.06;100.00;96238.69;5057844;28;19904;-69
2022/04/07 10:53:37;;;;;;;0.47;0.47;;;;;;;12.22;99.75;96215.69;5051400;28;20271;-69
2022/04/07 10:56:25;;;;;;;1.45;0.40;;;;;;;12.04;98.78;96224.78;5068627;28;20017;-69
2022/04/07 10:58:54;;;;;;;1.20;0.43;;;;;;;11.88;99.82;96200.34;5059375;28;20021;-69
2022/04/07 11:01:29;;;;;;;0.68;0.38;;;;;;;11.76;100.00;96211.63;5064525;28;20025;-69
2022/04/07 11:04:22;;;;;;;0.50;0.40;;;;;;;11.84;100.00;96208.53;5053406;28;20033;-69
2022/04/07 11:07:13;;;;;;;0.40;0.40;;;;;;;11.82;100.00;96216.53;5064305;28;20084;-69
2022/04/07 11:09:57;;;;;;;0.50;0.50;;;;;;;11.61;100.00;96207.28;5065038;28;20017;-69
2022/04/07 11:12:25;;;;;;;2.92;0.43;;;;;;;11.72;100.00;96220.69;5080369;28;20024;-69
2022/04/07 11:14:56;;;;;;;0.30;0.30;;;;;;;11.66;100.00;96194.72;5071936;28;20024;-69
2022/04/07 11:17:30;;;;;;;0.30;0.30;;;;;;;11.84;100.00;96209.38;5065210;28;20028;-69
2022/04/07 11:20:19;;;;;;;0.73;0.40;;;;;;;11.78;100.00;96204.50;5065088;28;20279;-69
2022/04/07 11:23:08;;;;;;;0.47;0.30;;;;;;;11.72;100.00;96215.41;5048414;28;20029;-69
2022/04/07 11:25:36;;;;;;;0.30;0.30;;;;;;;11.72;100.00;96220.69;5045065;28;20036;-69
2022/04/07 11:28:15;;;;;;;0.40;0.40;;;;;;;11.87;100.00;96203.88;5044951;28;20084;-69
2022/04/07 11:30:53;;;;;;;0.52;0.40;;;;;;;11.72;100.00;96199.59;5044973;28;20052;-69
2022/04/07 11:33:18;;;;;;;0.40;0.40;;;;;;;11.82;100.00;96195.44;5044720;28;20364;-69
2022/04/07 11:36:04;;;;;;;0.30;0.30;;;;;;;12.07;100.00;96190.31;5044833;28;20084;-69